Time;durP1;ratioP1;P1;durP2;ratioP2;P2;SDS_P1;SDS_P2;PMS_P1;PMS_P2;Temp;Humidity;BMP_temperature;BMP_pressure;BME280_temperature;BME280_humidity;BME280_pressure;Samples;Min_cycle;Max_cycle;Signal;HPM_P1;HPM_P2
2021/04/17 00:00:18;;;;;;;26.70;14.02;;;22.60;53.80;;;;;;5089036;28;20024;-68
2021/04/17 00:02:45;;;;;;;27.52;15.18;;;22.60;53.90;;;;;;5088453;28;20063;-67
2021/04/17 00:05:13;;;;;;;24.60;13.93;;;22.60;53.90;;;;;;5089149;28;20099;-67
2021/04/17 00:07:40;;;;;;;35.03;15.48;;;22.60;53.90;;;;;;5090021;28;20036;-67
2021/04/17 00:10:07;;;;;;;30.30;16.95;;;22.50;53.90;;;;;;5089216;28;20043;-70
2021/04/17 00:12:34;;;;;;;33.35;17.77;;;22.50;54.00;;;;;;5089830;28;20020;-69
2021/04/17 00:15:01;;;;;;;40.05;21.15;;;22.50;54.10;;;;;;5090394;28;20020;-67
2021/04/17 00:17:29;;;;;;;36.60;24.33;;;22.50;54.20;;;;;;5089360;28;20479;-67
2021/04/17 00:19:56;;;;;;;41.45;23.90;;;22.50;54.20;;;;;;5090274;28;20542;-67
2021/04/17 00:22:23;;;;;;;45.03;28.27;;;22.50;54.30;;;;;;5089080;28;20035;-68
2021/04/17 00:24:49;;;;;;;53.28;29.10;;;22.50;54.40;;;;;;5090443;28;20187;-68
2021/04/17 00:27:16;;;;;;;57.45;32.13;;;22.40;54.40;;;;;;5086530;28;20041;-69
2021/04/17 00:29:43;;;;;;;54.00;32.20;;;22.40;54.50;;;;;;5089324;28;20052;-67
2021/04/17 00:32:10;;;;;;;55.47;35.50;;;22.40;54.60;;;;;;5090311;28;20023;-67
2021/04/17 00:34:37;;;;;;;57.33;39.42;;;22.40;54.60;;;;;;5089039;28;20020;-69
2021/04/17 00:37:04;;;;;;;68.95;43.88;;;22.40;54.70;;;;;;5090252;28;20042;-69
2021/04/17 00:39:30;;;;;;;59.42;41.97;;;22.40;54.70;;;;;;5088905;28;20016;-67
2021/04/17 00:41:57;;;;;;;62.53;41.47;;;22.40;54.80;;;;;;5090032;28;20482;-69
2021/04/17 00:44:23;;;;;;;71.63;46.38;;;22.40;54.80;;;;;;5089288;28;20030;-70
2021/04/17 00:46:50;;;;;;;77.90;43.05;;;22.40;54.80;;;;;;5087547;28;20024;-68
2021/04/17 00:49:16;;;;;;;77.00;42.25;;;22.40;54.90;;;;;;5089355;28;20027;-68
2021/04/17 00:51:43;;;;;;;76.88;41.22;;;22.40;55.10;;;;;;5089193;28;20023;-69
2021/04/17 00:54:10;;;;;;;73.90;42.03;;;22.30;55.10;;;;;;5089965;28;20020;-69
2021/04/17 00:56:36;;;;;;;66.45;41.35;;;22.30;55.20;;;;;;5088962;28;20024;-68
2021/04/17 00:59:04;;;;;;;66.68;41.10;;;22.30;55.90;;;;;;5090352;28;20024;-68
2021/04/17 01:01:31;;;;;;;59.78;36.58;;;22.30;55.30;;;;;;5088942;28;20028;-68
2021/04/17 01:04:10;;;;;;;67.05;35.78;;;22.30;55.40;;;;;;5089396;28;20021;-70
2021/04/17 01:06:48;;;;;;;58.25;34.90;;;22.30;55.50;;;;;;5085496;28;20016;-67
2021/04/17 01:09:20;;;;;;;58.05;31.23;;;22.30;55.50;;;;;;5088710;28;20082;-69
2021/04/17 01:12:07;;;;;;;56.88;28.25;;;22.20;55.60;;;;;;5070001;28;20103;-68
2021/04/17 01:14:35;;;;;;;46.72;26.73;;;22.20;55.60;;;;;;5088636;28;20027;-67
2021/04/17 01:17:04;;;;;;;41.35;23.80;;;22.30;55.70;;;;;;5087463;28;20081;-67
2021/04/17 01:19:39;;;;;;;46.03;24.33;;;22.20;55.60;;;;;;5086553;28;20496;-67
2021/04/17 01:22:19;;;;;;;50.40;26.85;;;22.30;55.70;;;;;;5090262;28;20038;-68
2021/04/17 01:25:04;;;;;;;45.45;25.60;;;22.20;55.80;;;;;;5093821;28;20467;-67
2021/04/17 01:27:30;;;;;;;50.70;25.23;;;22.20;55.90;;;;;;5086461;28;20025;-69
2021/04/17 01:29:57;;;;;;;56.75;28.33;;;22.20;55.90;;;;;;5091934;28;20593;-69
2021/04/17 01:32:28;;;;;;;56.97;32.20;;;22.10;55.80;;;;;;5093234;28;20056;-67
2021/04/17 01:34:55;;;;;;;58.70;32.67;;;22.20;55.90;;;;;;5092361;28;20012;-68
2021/04/17 01:37:58;;;;;;;78.95;39.55;;;22.20;55.90;;;;;;5091418;28;20016;-70
2021/04/17 01:40:27;;;;;;;67.70;38.92;;;22.20;55.90;;;;;;5076271;28;20024;-70
2021/04/17 01:42:55;;;;;;;66.10;38.30;;;22.10;55.90;;;;;;5093183;28;20020;-68
2021/04/17 01:45:27;;;;;;;68.22;37.50;;;22.10;55.90;;;;;;5089763;28;20020;-67
2021/04/17 01:48:00;;;;;;;78.38;38.35;;;22.10;56.00;;;;;;5092207;28;20083;-69
2021/04/17 01:50:28;;;;;;;63.97;33.55;;;22.10;56.00;;;;;;5087001;28;20589;-68
2021/04/17 01:52:57;;;;;;;53.35;32.40;;;22.10;56.10;;;;;;5090494;28;20008;-67
2021/04/17 01:55:25;;;;;;;65.18;32.15;;;22.10;56.20;;;;;;5091506;28;20394;-68
2021/04/17 01:57:54;;;;;;;53.38;28.90;;;22.10;56.30;;;;;;5092115;28;20113;-67
2021/04/17 02:00:21;;;;;;;62.13;30.35;;;22.00;56.30;;;;;;5091163;28;20383;-67
2021/04/17 02:02:47;;;;;;;65.05;28.85;;;22.00;56.40;;;;;;5090279;28;20024;-70
2021/04/17 02:05:14;;;;;;;56.63;28.75;;;22.00;56.40;;;;;;5090360;28;20024;-68
2021/04/17 02:07:41;;;;;;;62.33;29.80;;;22.00;56.50;;;;;;5092682;28;20023;-67
2021/04/17 02:10:08;;;;;;;54.92;29.70;;;22.00;56.50;;;;;;5091622;28;20426;-69
2021/04/17 02:12:35;;;;;;;65.78;32.75;;;22.00;56.50;;;;;;5092827;28;20069;-67
2021/04/17 02:15:03;;;;;;;63.42;31.88;;;22.00;56.60;;;;;;5075831;28;20103;-70
2021/04/17 02:17:51;;;;;;;86.65;42.22;;;22.00;56.60;;;;;;5090649;28;20142;-70
2021/04/17 02:20:38;;;;;;;87.93;53.72;;;21.90;56.50;;;;;;5089167;28;20091;-71
2021/04/17 02:23:04;;;;;;;77.70;47.22;;;21.90;56.60;;;;;;5086168;28;20032;-70
2021/04/17 02:25:31;;;;;;;75.60;42.63;;;21.90;56.60;;;;;;5090326;28;20369;-71
2021/04/17 02:27:58;;;;;;;79.43;43.10;;;21.90;56.60;;;;;;5071208;28;20336;-68
2021/04/17 02:30:24;;;;;;;75.53;36.20;;;21.90;56.60;;;;;;5089479;28;20058;-70
2021/04/17 02:32:51;;;;;;;66.40;34.63;;;21.90;56.60;;;;;;5088945;28;20024;-71
2021/04/17 02:35:18;;;;;;;67.57;33.85;;;21.90;56.70;;;;;;5090175;28;20008;-68
2021/04/17 02:37:44;;;;;;;52.30;29.77;;;21.80;56.70;;;;;;5087526;28;20020;-66
2021/04/17 02:40:11;;;;;;;54.17;30.13;;;21.80;56.70;;;;;;5090961;28;20024;-70
2021/04/17 02:42:38;;;;;;;57.05;27.58;;;21.80;56.70;;;;;;5092063;28;20405;-67
2021/04/17 02:45:05;;;;;;;49.55;26.33;;;21.80;56.80;;;;;;5091042;28;20557;-71
2021/04/17 02:47:31;;;;;;;56.10;26.80;;;21.80;56.80;;;;;;5091995;28;20059;-66
2021/04/17 02:49:58;;;;;;;43.10;22.63;;;21.80;56.90;;;;;;5091374;28;20514;-67
2021/04/17 02:52:24;;;;;;;45.72;21.30;;;21.80;57.00;;;;;;5088163;28;20020;-67
2021/04/17 02:54:51;;;;;;;40.65;21.17;;;21.80;57.00;;;;;;5091955;28;20016;-67
2021/04/17 02:57:18;;;;;;;36.33;19.90;;;21.80;57.10;;;;;;5086201;28;20012;-67
2021/04/17 02:59:44;;;;;;;45.30;17.77;;;21.70;57.10;;;;;;5085057;28;20028;-67
2021/04/17 03:02:11;;;;;;;38.60;18.83;;;21.70;57.20;;;;;;5088426;28;20502;-67
2021/04/17 03:04:37;;;;;;;42.03;19.08;;;21.70;57.20;;;;;;5092092;28;20013;-67
2021/04/17 03:07:04;;;;;;;38.08;18.17;;;21.70;57.30;;;;;;5090595;28;20031;-67
2021/04/17 03:09:30;;;;;;;37.72;17.65;;;21.70;57.30;;;;;;5080118;28;20464;-71
2021/04/17 03:11:57;;;;;;;33.30;17.55;;;21.70;57.30;;;;;;5091294;28;20020;-67
2021/04/17 03:14:23;;;;;;;32.45;16.73;;;21.70;57.40;;;;;;5090770;28;20040;-71
2021/04/17 03:16:50;;;;;;;36.28;16.90;;;21.70;57.40;;;;;;5091647;28;20023;-68
2021/04/17 03:19:17;;;;;;;34.70;16.45;;;21.70;57.40;;;;;;5087896;28;20035;-70
2021/04/17 03:21:43;;;;;;;43.65;22.48;;;21.70;57.50;;;;;;5090643;28;20504;-68
2021/04/17 03:24:10;;;;;;;49.60;30.13;;;21.60;57.40;;;;;;5090042;28;20016;-67
2021/04/17 03:26:36;;;;;;;39.00;25.95;;;21.60;57.40;;;;;;5091652;28;20020;-67
2021/04/17 03:29:03;;;;;;;39.45;22.58;;;21.60;58.10;;;;;;5090695;28;20103;-66
2021/04/17 03:31:29;;;;;;;39.17;21.27;;;21.60;58.10;;;;;;5090549;28;20526;-71
2021/04/17 03:33:56;;;;;;;42.30;18.27;;;21.60;57.50;;;;;;5091256;28;20497;-72
2021/04/17 03:36:23;;;;;;;40.45;18.75;;;21.60;57.50;;;;;;5089855;28;20020;-68
2021/04/17 03:38:50;;;;;;;34.17;18.33;;;21.60;57.40;;;;;;5091014;28;20024;-69
2021/04/17 03:41:17;;;;;;;39.60;17.45;;;21.60;57.50;;;;;;5087587;28;20028;-69
2021/04/17 03:43:43;;;;;;;37.50;18.10;;;21.50;57.50;;;;;;5090630;28;20494;-66
2021/04/17 03:46:10;;;;;;;35.13;19.80;;;21.50;57.40;;;;;;5090026;28;20020;-71
2021/04/17 03:48:36;;;;;;;39.85;20.20;;;21.50;57.40;;;;;;5090728;28;20408;-71
2021/04/17 03:51:03;;;;;;;46.72;20.83;;;21.50;57.40;;;;;;5090723;28;20020;-67
2021/04/17 03:53:29;;;;;;;41.42;20.45;;;21.50;57.40;;;;;;5088408;28;20016;-66
2021/04/17 03:55:56;;;;;;;45.53;21.05;;;21.40;57.40;;;;;;5085210;28;20143;-67
2021/04/17 03:58:22;;;;;;;37.33;21.88;;;21.40;57.30;;;;;;5089557;28;20077;-69
2021/04/17 04:00:49;;;;;;;41.55;21.90;;;21.50;57.40;;;;;;5090850;28;20482;-72
2021/04/17 04:03:15;;;;;;;45.17;20.17;;;21.40;57.40;;;;;;5089615;28;20057;-71
2021/04/17 04:05:42;;;;;;;43.90;21.08;;;21.40;57.40;;;;;;5089992;28;20052;-69
2021/04/17 04:08:08;;;;;;;46.50;22.02;;;21.40;57.40;;;;;;5086283;28;20490;-68
2021/04/17 04:10:35;;;;;;;45.28;23.02;;;21.40;57.40;;;;;;5089892;28;20427;-66
2021/04/17 04:13:04;;;;;;;43.22;22.20;;;21.40;57.50;;;;;;5090232;28;20055;-71
2021/04/17 04:15:31;;;;;;;55.25;34.75;;;21.40;57.50;;;;;;5089399;28;20027;-71
2021/04/17 04:17:57;;;;;;;55.25;35.55;;;21.40;57.60;;;;;;5083793;28;20411;-71
2021/04/17 04:20:23;;;;;;;56.53;28.45;;;21.40;57.70;;;;;;5089197;28;20020;-71
2021/04/17 04:22:50;;;;;;;55.63;27.15;;;21.30;57.60;;;;;;5090237;28;20095;-70
2021/04/17 04:25:16;;;;;;;47.35;22.98;;;21.30;57.70;;;;;;5089615;28;20016;-70
2021/04/17 04:27:43;;;;;;;41.42;22.42;;;21.30;57.70;;;;;;5089909;28;20016;-67
2021/04/17 04:30:11;;;;;;;54.05;22.42;;;21.30;57.70;;;;;;5089887;28;20132;-71
2021/04/17 04:32:38;;;;;;;42.88;19.42;;;21.30;57.70;;;;;;5086884;28;20729;-70
2021/04/17 04:35:06;;;;;;;33.90;18.70;;;21.30;57.80;;;;;;5089577;28;20448;-71
2021/04/17 04:37:33;;;;;;;42.53;20.02;;;21.30;57.80;;;;;;5089649;28;20154;-72
2021/04/17 04:40:00;;;;;;;38.83;17.73;;;21.30;57.80;;;;;;5089510;28;20008;-67
2021/04/17 04:42:26;;;;;;;39.75;18.45;;;21.30;57.80;;;;;;5085634;28;20051;-72
2021/04/17 04:44:53;;;;;;;41.60;16.75;;;21.20;57.70;;;;;;5092208;28;20375;-67
2021/04/17 04:47:20;;;;;;;39.08;18.10;;;21.20;57.70;;;;;;5087788;28;20024;-68
2021/04/17 04:49:47;;;;;;;33.35;16.40;;;21.20;57.80;;;;;;5089304;28;20020;-71
2021/04/17 04:52:13;;;;;;;35.78;17.42;;;21.20;57.80;;;;;;5085853;28;20408;-71
2021/04/17 04:54:40;;;;;;;30.77;16.13;;;21.20;57.80;;;;;;5078529;28;20397;-70
2021/04/17 04:57:07;;;;;;;40.45;17.85;;;21.20;57.80;;;;;;5090064;28;20036;-68
2021/04/17 04:59:33;;;;;;;35.95;18.15;;;21.10;57.80;;;;;;5086102;28;20020;-71
2021/04/17 05:02:02;;;;;;;43.00;19.60;;;21.20;57.90;;;;;;5093886;28;20505;-70
2021/04/17 05:04:28;;;;;;;33.72;17.63;;;21.10;57.90;;;;;;5087109;28;20009;-71
2021/04/17 05:06:55;;;;;;;29.77;14.95;;;21.20;58.00;;;;;;5074193;28;20028;-75
2021/04/17 05:09:22;;;;;;;45.63;15.75;;;21.10;58.00;;;;;;5090847;28;20023;-71
2021/04/17 05:11:48;;;;;;;33.13;14.00;;;21.10;58.00;;;;;;5092002;28;20023;-70
2021/04/17 05:14:15;;;;;;;31.48;12.43;;;21.10;58.10;;;;;;5092136;28;20063;-70
2021/04/17 05:16:41;;;;;;;34.55;13.57;;;21.10;58.10;;;;;;5085820;28;20028;-74
2021/04/17 05:19:09;;;;;;;23.05;12.10;;;21.10;58.20;;;;;;5090032;28;20533;-73
2021/04/17 05:21:35;;;;;;;25.60;13.20;;;21.10;58.30;;;;;;5085755;28;20506;-70
2021/04/17 05:24:03;;;;;;;56.72;34.03;;;21.10;58.30;;;;;;5086316;28;20483;-72
2021/04/17 05:26:29;;;;;;;42.63;22.77;;;21.10;58.30;;;;;;5089502;28;20537;-77
2021/04/17 05:28:56;;;;;;;44.60;24.33;;;21.00;58.30;;;;;;5082079;28;20024;-71
2021/04/17 05:31:23;;;;;;;34.10;18.92;;;21.00;58.40;;;;;;5087168;28;20040;-69
2021/04/17 05:33:49;;;;;;;34.35;17.33;;;21.00;58.50;;;;;;5065531;28;20519;-68
2021/04/17 05:36:16;;;;;;;33.67;19.17;;;21.00;58.50;;;;;;5087823;28;20027;-77
2021/04/17 05:38:42;;;;;;;34.03;16.40;;;21.00;58.50;;;;;;5083868;28;20022;-77
2021/04/17 05:41:09;;;;;;;28.90;15.02;;;21.00;58.60;;;;;;5084300;28;20016;-73
2021/04/17 05:43:35;;;;;;;28.45;13.23;;;21.00;58.60;;;;;;5081193;28;20093;-71
2021/04/17 05:46:02;;;;;;;32.70;12.82;;;21.00;58.60;;;;;;5086452;28;20470;-69
2021/04/17 05:48:29;;;;;;;33.72;13.38;;;21.00;58.70;;;;;;5090625;28;20415;-77
2021/04/17 05:50:57;;;;;;;37.13;11.98;;;21.00;58.70;;;;;;5082579;28;20020;-71
2021/04/17 05:53:25;;;;;;;33.15;12.55;;;21.00;58.80;;;;;;5084950;28;20024;-73
2021/04/17 05:55:52;;;;;;;31.90;15.32;;;21.00;58.80;;;;;;5083821;28;20016;-73
2021/04/17 05:58:19;;;;;;;32.70;19.25;;;21.00;58.90;;;;;;5088551;28;20110;-78
2021/04/17 06:00:45;;;;;;;35.83;15.75;;;21.00;58.90;;;;;;5092494;28;20428;-70
2021/04/17 06:03:12;;;;;;;34.28;16.67;;;21.00;59.00;;;;;;5092156;28;20047;-77
2021/04/17 06:05:38;;;;;;;39.42;23.60;;;21.00;59.00;;;;;;5092839;28;20032;-70
2021/04/17 06:08:05;;;;;;;33.10;21.25;;;21.00;59.10;;;;;;5087626;28;20467;-70
2021/04/17 06:10:32;;;;;;;24.92;15.48;;;21.00;59.10;;;;;;5092845;28;20103;-70
2021/04/17 06:12:58;;;;;;;34.42;14.80;;;21.00;59.20;;;;;;5073610;28;20153;-69
2021/04/17 06:15:25;;;;;;;28.02;13.63;;;21.00;59.30;;;;;;5092689;28;20016;-71
2021/04/17 06:17:51;;;;;;;24.17;10.30;;;21.00;59.30;;;;;;5092038;28;20020;-72
2021/04/17 06:20:18;;;;;;;25.90;10.63;;;21.00;59.40;;;;;;5091882;28;20089;-69
2021/04/17 06:22:45;;;;;;;25.38;10.07;;;21.00;59.50;;;;;;5074964;28;20040;-72
2021/04/17 06:25:12;;;;;;;19.20;9.32;;;21.00;59.60;;;;;;5091367;28;20493;-72
2021/04/17 06:27:38;;;;;;;22.65;9.23;;;21.00;59.70;;;;;;5092563;28;20035;-72
2021/04/17 06:30:07;;;;;;;15.70;8.18;;;21.00;59.80;;;;;;5091139;28;20394;-72
2021/04/17 06:32:33;;;;;;;22.13;8.35;;;21.00;59.90;;;;;;5092504;28;20027;-71
2021/04/17 06:35:00;;;;;;;25.67;9.55;;;21.00;59.90;;;;;;5088508;28;20070;-71
2021/04/17 06:37:26;;;;;;;21.85;7.63;;;21.00;60.10;;;;;;5089996;28;20070;-72
2021/04/17 06:39:53;;;;;;;19.58;8.50;;;21.00;60.10;;;;;;5092066;28;20340;-70
2021/04/17 06:42:23;;;;;;;23.08;8.57;;;21.00;60.10;;;;;;5075119;28;20036;-71
2021/04/17 06:44:51;;;;;;;17.73;7.93;;;21.10;60.20;;;;;;5092312;28;20026;-69
2021/04/17 06:47:18;;;;;;;28.20;9.63;;;21.10;60.30;;;;;;5090563;28;20055;-71
2021/04/17 06:49:45;;;;;;;22.60;8.05;;;21.10;60.30;;;;;;5092026;28;20024;-72
2021/04/17 06:52:13;;;;;;;29.40;9.68;;;21.10;60.40;;;;;;5091181;28;20065;-72
2021/04/17 06:54:41;;;;;;;22.38;9.80;;;21.10;60.40;;;;;;5091721;28;20044;-72
2021/04/17 06:57:07;;;;;;;24.17;8.80;;;21.10;60.40;;;;;;5091772;28;20562;-72
2021/04/17 06:59:34;;;;;;;20.27;10.43;;;21.20;60.50;;;;;;5090944;28;20024;-72
2021/04/17 07:02:01;;;;;;;23.20;10.05;;;21.20;60.60;;;;;;5089434;28;20078;-72
2021/04/17 07:04:27;;;;;;;23.80;8.65;;;21.20;60.60;;;;;;5090108;28;20039;-70
2021/04/17 07:06:54;;;;;;;23.95;8.27;;;21.20;60.60;;;;;;5091857;28;20463;-70
2021/04/17 07:09:22;;;;;;;20.23;8.82;;;21.30;60.60;;;;;;5086034;28;20526;-71
2021/04/17 07:11:49;;;;;;;24.70;9.35;;;21.30;60.60;;;;;;5087946;28;20399;-71
2021/04/17 07:14:18;;;;;;;23.80;9.85;;;21.30;60.60;;;;;;5091110;28;20053;-70
2021/04/17 07:17:04;;;;;;;20.75;8.93;;;21.30;60.50;;;;;;5086314;28;20385;-71
2021/04/17 07:19:50;;;;;;;28.65;12.07;;;21.40;60.50;;;;;;5087130;28;20036;-69
2021/04/17 07:22:25;;;;;;;20.80;9.18;;;21.40;60.40;;;;;;5090280;28;20510;-69
2021/04/17 07:24:54;;;;;;;29.20;10.50;;;21.40;60.40;;;;;;5091174;28;20031;-69
2021/04/17 07:27:48;;;;;;;27.15;10.77;;;21.50;60.40;;;;;;5090898;28;20113;-69
2021/04/17 07:30:17;;;;;;;24.13;9.52;;;21.50;60.40;;;;;;5087166;28;20044;-71
2021/04/17 07:33:14;;;;;;;22.33;8.70;;;21.50;60.30;;;;;;5085763;28;20414;-70
2021/04/17 07:35:45;;;;;;;20.30;9.75;;;21.60;60.30;;;;;;5085922;28;20082;-71
2021/04/17 07:38:17;;;;;;;23.90;8.70;;;21.60;60.30;;;;;;5090485;28;20038;-71
2021/04/17 07:40:46;;;;;;;20.55;8.00;;;21.60;60.20;;;;;;5090807;28;20543;-69
2021/04/17 07:43:17;;;;;;;21.55;9.07;;;21.60;60.20;;;;;;5089785;28;20039;-71
2021/04/17 07:45:44;;;;;;;16.58;8.52;;;21.70;60.10;;;;;;5091089;28;20057;-72
2021/04/17 07:48:29;;;;;;;26.33;10.73;;;21.70;60.10;;;;;;5089855;28;20141;-72
2021/04/17 07:50:59;;;;;;;22.17;9.40;;;21.80;60.00;;;;;;5090661;28;20016;-71
2021/04/17 07:53:30;;;;;;;23.33;8.65;;;21.80;59.90;;;;;;5086613;28;20398;-71
2021/04/17 07:56:17;;;;;;;26.83;10.02;;;21.90;59.90;;;;;;5088253;28;20416;-72
2021/04/17 07:58:48;;;;;;;21.75;9.43;;;21.90;59.90;;;;;;5090271;28;20020;-71
2021/04/17 08:01:17;;;;;;;16.75;7.65;;;22.00;59.80;;;;;;5089457;28;20050;-71
2021/04/17 08:03:46;;;;;;;23.73;9.05;;;22.00;59.70;;;;;;5088846;28;20035;-72
2021/04/17 08:06:16;;;;;;;26.17;9.80;;;22.00;59.70;;;;;;5089691;28;20455;-69
2021/04/17 08:08:44;;;;;;;20.58;9.55;;;22.10;59.70;;;;;;5089931;28;20016;-71
2021/04/17 08:11:11;;;;;;;27.00;10.90;;;22.10;59.60;;;;;;5090631;28;20020;-71
2021/04/17 08:13:39;;;;;;;23.35;11.90;;;22.10;59.50;;;;;;5089334;28;20570;-70
2021/04/17 08:16:09;;;;;;;25.50;10.57;;;22.20;59.50;;;;;;5090493;28;20378;-69
2021/04/17 08:18:37;;;;;;;22.98;9.85;;;22.20;59.40;;;;;;5072667;28;20020;-72
2021/04/17 08:21:08;;;;;;;27.02;10.65;;;22.30;59.30;;;;;;5090447;28;20030;-69
2021/04/17 08:23:36;;;;;;;21.92;9.15;;;22.30;59.20;;;;;;5089980;28;20047;-71
2021/04/17 08:26:07;;;;;;;24.33;10.02;;;22.40;59.10;;;;;;5089716;28;20020;-72
2021/04/17 08:28:44;;;;;;;22.02;10.88;;;22.40;59.00;;;;;;5090264;28;20577;-72
2021/04/17 08:31:31;;;;;;;26.23;11.07;;;22.50;58.90;;;;;;5088336;28;20043;-72
2021/04/17 08:34:20;;;;;;;25.77;10.98;;;22.50;58.90;;;;;;5087237;28;20063;-70
2021/04/17 08:36:49;;;;;;;26.77;10.25;;;22.60;58.90;;;;;;5089092;28;20082;-70
2021/04/17 08:39:34;;;;;;;32.50;11.52;;;22.60;58.70;;;;;;5089068;28;20514;-69
2021/04/17 08:42:05;;;;;;;27.92;11.18;;;22.70;58.70;;;;;;5090046;28;20461;-72
2021/04/17 08:44:41;;;;;;;21.85;10.73;;;22.70;58.70;;;;;;5088806;28;20358;-71
2021/04/17 08:47:10;;;;;;;26.90;11.88;;;22.80;58.60;;;;;;5089710;28;20095;-70
2021/04/17 08:49:39;;;;;;;28.90;13.13;;;22.80;58.50;;;;;;5077586;28;20029;-68
2021/04/17 08:52:09;;;;;;;27.02;10.05;;;22.90;59.10;;;;;;5076722;28;20016;-69
2021/04/17 08:54:39;;;;;;;29.50;11.60;;;23.00;58.40;;;;;;5080816;28;20106;-69
2021/04/17 08:57:18;;;;;;;26.85;11.75;;;23.10;58.40;;;;;;5080566;28;20434;-69
2021/04/17 08:59:57;;;;;;;89.78;70.70;;;23.20;58.20;;;;;;5086487;28;20028;-70
2021/04/17 09:02:25;;;;;;;146.02;117.10;;;23.20;58.00;;;;;;5080920;28;20042;-70
2021/04/17 09:05:05;;;;;;;110.68;91.28;;;23.30;58.10;;;;;;5078673;28;20016;-69
2021/04/17 09:07:34;;;;;;;94.38;69.55;;;23.40;58.40;;;;;;5088341;28;20024;-69
2021/04/17 09:10:22;;;;;;;79.80;58.08;;;23.40;58.40;;;;;;5088810;28;20028;-69
2021/04/17 09:13:17;;;;;;;66.30;47.05;;;23.50;58.30;;;;;;5082972;28;20039;-69
2021/04/17 09:15:53;;;;;;;72.70;44.15;;;23.60;58.30;;;;;;5077732;28;20032;-71
2021/04/17 09:18:38;;;;;;;50.30;34.42;;;23.70;58.10;;;;;;5087904;28;20103;-71
2021/04/17 09:21:08;;;;;;;38.95;28.17;;;23.80;57.90;;;;;;5087993;28;20032;-69
2021/04/17 09:23:53;;;;;;;41.65;25.38;;;23.90;57.70;;;;;;5088372;28;20063;-69
2021/04/17 09:26:32;;;;;;;39.53;23.65;;;23.90;57.40;;;;;;5088799;28;20027;-69
2021/04/17 09:29:05;;;;;;;27.95;18.48;;;24.00;57.10;;;;;;5089345;28;20024;-68
2021/04/17 09:31:39;;;;;;;34.47;17.23;;;24.10;57.10;;;;;;5082380;28;20085;-70
2021/04/17 09:34:11;;;;;;;30.45;17.02;;;24.20;56.60;;;;;;5087985;28;20031;-69
2021/04/17 09:36:38;;;;;;;29.23;16.15;;;24.20;56.00;;;;;;5084142;28;20487;-68
2021/04/17 09:39:26;;;;;;;24.05;12.68;;;24.30;55.60;;;;;;5089358;28;20081;-71
2021/04/17 09:41:54;;;;;;;23.92;12.73;;;24.30;55.20;;;;;;5086406;28;20465;-68
2021/04/17 09:44:21;;;;;;;26.65;12.68;;;24.40;55.00;;;;;;5089400;28;20463;-71
2021/04/17 09:47:08;;;;;;;23.98;11.20;;;24.50;55.00;;;;;;5093253;28;20031;-72
2021/04/17 09:49:45;;;;;;;22.40;10.68;;;24.70;54.80;;;;;;5091508;28;20020;-68
2021/04/17 09:52:18;;;;;;;22.17;9.95;;;24.80;54.40;;;;;;5092606;28;20024;-70
2021/04/17 09:55:06;;;;;;;21.48;10.10;;;24.80;53.80;;;;;;5093193;28;20019;-68
2021/04/17 09:57:33;;;;;;;23.38;10.02;;;24.90;53.40;;;;;;5085880;28;20027;-69
2021/04/17 10:00:01;;;;;;;26.35;8.32;;;25.00;53.50;;;;;;5091865;28;20031;-68
2021/04/17 10:02:45;;;;;;;22.17;9.65;;;25.10;53.30;;;;;;5091719;28;20032;-67
2021/04/17 10:05:13;;;;;;;20.70;7.63;;;25.20;52.90;;;;;;5091727;28;20099;-72
2021/04/17 10:07:53;;;;;;;18.48;7.68;;;25.30;52.20;;;;;;5091096;28;20028;-70
2021/04/17 10:10:20;;;;;;;14.85;5.95;;;25.30;52.00;;;;;;5091647;28;20016;-71
2021/04/17 10:12:48;;;;;;;19.20;6.95;;;25.40;51.60;;;;;;5092919;28;20475;-72
2021/04/17 10:15:16;;;;;;;15.38;6.72;;;25.50;51.00;;;;;;5091329;28;20526;-74
2021/04/17 10:17:43;;;;;;;25.60;7.70;;;25.60;50.20;;;;;;5092318;28;20166;-72
2021/04/17 10:20:11;;;;;;;22.67;7.10;;;25.70;50.00;;;;;;5088807;28;20016;-75
2021/04/17 10:22:37;;;;;;;11.70;5.32;;;25.70;49.50;;;;;;5087340;28;20032;-73
2021/04/17 10:25:09;;;;;;;14.50;5.28;;;25.80;49.20;;;;;;5091786;28;20017;-77
2021/04/17 10:27:37;;;;;;;11.52;4.70;;;25.90;49.20;;;;;;5091136;28;20027;-76
2021/04/17 10:30:16;;;;;;;11.55;5.22;;;26.00;48.50;;;;;;5091736;28;20048;-77
2021/04/17 10:32:42;;;;;;;13.60;4.88;;;26.10;48.20;;;;;;5088947;28;20020;-71
2021/04/17 10:35:15;;;;;;;12.90;5.22;;;26.20;47.20;;;;;;5090045;28;20016;-72
2021/04/17 10:37:48;;;;;;;11.70;5.10;;;26.20;46.60;;;;;;5091335;28;20028;-69
2021/04/17 10:40:19;;;;;;;8.07;4.43;;;26.40;46.70;;;;;;5090881;28;20007;-71
2021/04/17 10:42:46;;;;;;;13.27;5.47;;;26.40;45.90;;;;;;5091597;28;20032;-71
2021/04/17 10:45:15;;;;;;;12.57;5.10;;;26.50;46.30;;;;;;5091056;28;21155;-70
2021/04/17 10:47:41;;;;;;;12.90;4.07;;;26.60;44.80;;;;;;5092001;28;20065;-70
2021/04/17 10:50:20;;;;;;;13.25;5.13;;;26.80;44.00;;;;;;5091027;28;20501;-70
2021/04/17 10:53:00;;;;;;;16.00;4.30;;;26.80;43.30;;;;;;5085126;28;20030;-71
2021/04/17 10:55:46;;;;;;;10.75;4.55;;;26.90;43.90;;;;;;5087549;28;20521;-69
2021/04/17 10:58:39;;;;;;;9.65;4.45;;;27.00;43.00;;;;;;5090704;28;20016;-71
2021/04/17 11:01:09;;;;;;;9.93;5.45;;;27.10;42.80;;;;;;5087297;28;20478;-72
2021/04/17 11:03:45;;;;;;;12.27;4.63;;;27.20;42.20;;;;;;5091181;28;20382;-70
2021/04/17 11:06:13;;;;;;;9.93;4.72;;;27.30;42.20;;;;;;5088501;28;20020;-69
2021/04/17 11:08:40;;;;;;;12.93;4.68;;;27.40;43.10;;;;;;5090969;28;20184;-69
2021/04/17 11:11:14;;;;;;;10.60;4.22;;;27.50;42.00;;;;;;5090347;28;20050;-69
2021/04/17 11:13:42;;;;;;;11.57;4.05;;;27.60;41.90;;;;;;5091400;28;20016;-69
2021/04/17 11:16:14;;;;;;;12.55;3.88;;;27.70;41.90;;;;;;5083455;28;20043;-72
2021/04/17 11:18:44;;;;;;;9.30;3.70;;;27.70;41.60;;;;;;5091246;28;20035;-72
2021/04/17 11:21:10;;;;;;;6.93;3.25;;;27.80;41.10;;;;;;5091123;28;20009;-71
2021/04/17 11:23:40;;;;;;;8.40;3.22;;;27.90;40.80;;;;;;5090481;28;20032;-72
2021/04/17 11:26:17;;;;;;;9.90;2.65;;;28.00;39.40;;;;;;5091274;28;20044;-77
2021/04/17 11:28:50;;;;;;;5.78;2.80;;;28.10;38.70;;;;;;5090308;28;20081;-72
2021/04/17 11:31:22;;;;;;;7.78;2.92;;;28.10;37.50;;;;;;5090980;28;20055;-69
2021/04/17 11:33:50;;;;;;;4.55;2.72;;;28.10;37.40;;;;;;5067518;28;20028;-73
2021/04/17 11:36:18;;;;;;;5.50;3.42;;;28.10;39.00;;;;;;5090276;28;20019;-72
2021/04/17 11:38:44;;;;;;;8.90;3.80;;;28.10;40.10;;;;;;5090138;28;20076;-71
2021/04/17 11:41:11;;;;;;;11.82;3.85;;;28.20;41.20;;;;;;5089875;28;20024;-74
2021/04/17 11:43:37;;;;;;;9.43;4.65;;;28.10;41.90;;;;;;5084920;28;20526;-73
2021/04/17 11:46:04;;;;;;;13.32;5.55;;;28.10;42.40;;;;;;5089675;28;20044;-74
2021/04/17 11:48:31;;;;;;;22.40;9.30;;;28.10;42.80;;;;;;5091346;28;20016;-70
2021/04/17 11:50:58;;;;;;;39.25;35.03;;;28.10;43.30;;;;;;5090091;28;20154;-74
2021/04/17 11:53:25;;;;;;;19.60;9.10;;;28.10;43.70;;;;;;5090479;28;20498;-76
2021/04/17 11:55:53;;;;;;;15.50;6.20;;;28.10;44.00;;;;;;5088547;28;20441;-73
2021/04/17 11:58:20;;;;;;;13.07;6.28;;;28.10;44.10;;;;;;5068561;28;20480;-74
2021/04/17 12:00:47;;;;;;;11.73;6.10;;;28.20;44.30;;;;;;5090460;28;20031;-74
2021/04/17 12:03:20;;;;;;;11.15;5.47;;;28.20;44.40;;;;;;5088429;28;20024;-72
2021/04/17 12:05:51;;;;;;;16.10;6.20;;;28.20;45.10;;;;;;5085849;28;20024;-72
2021/04/17 12:08:18;;;;;;;16.30;5.13;;;28.20;44.30;;;;;;5077350;28;20032;-71
2021/04/17 12:10:46;;;;;;;11.93;5.00;;;28.30;45.10;;;;;;5082458;28;20039;-71
2021/04/17 12:13:12;;;;;;;12.80;5.55;;;28.20;44.40;;;;;;5080505;28;20032;-71
2021/04/17 12:15:41;;;;;;;11.25;5.18;;;28.20;44.60;;;;;;5080658;28;20024;-73
2021/04/17 12:18:09;;;;;;;12.55;4.57;;;28.20;44.60;;;;;;5075737;28;20078;-72
2021/04/17 12:20:36;;;;;;;11.20;4.88;;;28.10;44.50;;;;;;5078774;28;20019;-70
2021/04/17 12:23:03;;;;;;;12.20;4.47;;;28.10;44.60;;;;;;5077925;28;20039;-71
2021/04/17 12:25:29;;;;;;;11.95;5.22;;;28.10;44.60;;;;;;5077355;28;20021;-73
2021/04/17 12:27:56;;;;;;;12.93;6.10;;;28.10;44.60;;;;;;5078032;28;20020;-71
2021/04/17 12:30:24;;;;;;;19.63;6.22;;;28.10;44.40;;;;;;5075566;28;20046;-72
2021/04/17 12:32:51;;;;;;;12.27;4.55;;;28.10;44.30;;;;;;5076655;28;20042;-72
2021/04/17 12:35:20;;;;;;;10.32;4.57;;;28.00;44.20;;;;;;5076100;28;20017;-72
2021/04/17 12:37:48;;;;;;;8.90;4.85;;;28.00;44.30;;;;;;5077897;28;20032;-71
2021/04/17 12:40:16;;;;;;;10.23;4.40;;;28.00;44.50;;;;;;5072984;28;20051;-71
2021/04/17 12:42:42;;;;;;;11.60;4.45;;;28.00;44.60;;;;;;5077432;28;20056;-71